createdAt,value
2023-04-04T00:01:19.497Z,3.33
2023-04-04T00:03:52.059Z,3.13
2023-04-04T00:06:21.024Z,3.40
2023-04-04T00:08:51.484Z,3.55
2023-04-04T00:11:20.107Z,3.50
2023-04-04T00:13:48.673Z,3.30
2023-04-04T00:16:17.634Z,3.67
2023-04-04T00:18:46.374Z,3.47
2023-04-04T00:21:14.988Z,3.20
2023-04-04T00:23:43.450Z,3.13
2023-04-04T00:26:13.491Z,3.75
2023-04-04T00:28:43.030Z,3.20
2023-04-04T00:31:11.841Z,3.10
2023-04-04T00:33:40.436Z,2.95
2023-04-04T00:36:09.159Z,3.08
2023-04-04T00:38:37.956Z,2.45
2023-04-04T00:41:07.985Z,2.75
2023-04-04T00:43:38.256Z,2.50
2023-04-04T00:46:11.481Z,2.50
2023-04-04T00:48:40.809Z,2.50
2023-04-04T00:51:09.357Z,2.50
2023-04-04T00:53:38.882Z,2.70
2023-04-04T00:56:10.685Z,2.70
2023-04-04T00:58:41.320Z,2.55
2023-04-04T01:01:11.349Z,2.83
2023-04-04T01:03:40.207Z,2.90
2023-04-04T01:06:10.574Z,2.67
2023-04-04T01:08:40.084Z,2.20
2023-04-04T01:11:09.160Z,2.45
2023-04-04T01:13:38.262Z,2.13
2023-04-04T01:16:09.087Z,2.47
2023-04-04T01:18:40.240Z,2.80
2023-04-04T01:21:12.693Z,2.47
2023-04-04T01:23:52.005Z,2.40
2023-04-04T01:26:24.067Z,2.80
2023-04-04T01:28:52.612Z,2.42
2023-04-04T01:31:27.693Z,2.22
2023-04-04T01:34:13.613Z,2.42
2023-04-04T01:36:49.585Z,2.22
2023-04-04T01:39:26.133Z,2.50
2023-04-04T01:41:58.766Z,2.83
2023-04-04T01:44:27.804Z,2.70
2023-04-04T01:46:57.592Z,2.22
2023-04-04T01:49:26.273Z,2.20
2023-04-04T01:51:55.714Z,2.47
2023-04-04T01:54:24.335Z,2.60
2023-04-04T01:56:53.555Z,2.38
2023-04-04T01:59:23.708Z,2.35
2023-04-04T02:01:54.436Z,2.53
2023-04-04T02:04:23.362Z,2.45
2023-04-04T02:06:53.036Z,2.30
2023-04-04T02:09:21.675Z,2.25
2023-04-04T02:11:51.365Z,2.50
2023-04-04T02:14:19.857Z,2.13
2023-04-04T02:16:50.210Z,2.58
2023-04-04T02:19:19.148Z,2.50
2023-04-04T02:21:47.600Z,2.70
2023-04-04T02:24:16.226Z,2.70
2023-04-04T02:26:45.796Z,2.72
2023-04-04T02:29:14.555Z,2.92
2023-04-04T02:31:44.140Z,2.80
2023-04-04T02:34:14.659Z,3.22
2023-04-04T02:36:43.334Z,2.75
2023-04-04T02:39:11.882Z,2.88
2023-04-04T02:41:41.938Z,2.88
2023-04-04T02:44:10.632Z,2.92
2023-04-04T02:46:40.134Z,2.63
2023-04-04T02:49:09.164Z,3.00
2023-04-04T02:51:39.899Z,2.80
2023-04-04T02:54:08.492Z,3.10
2023-04-04T02:56:38.672Z,2.95
2023-04-04T02:59:07.887Z,2.67
2023-04-04T03:01:36.667Z,3.10
2023-04-04T03:04:05.970Z,3.33
2023-04-04T03:06:35.031Z,3.05
2023-04-04T03:09:06.059Z,3.30
2023-04-04T03:11:34.707Z,3.10
2023-04-04T03:14:03.359Z,3.40
2023-04-04T03:16:32.173Z,3.30
2023-04-04T03:19:00.900Z,3.33
2023-04-04T03:21:29.497Z,3.30
2023-04-04T03:23:58.192Z,3.20
2023-04-04T03:26:29.911Z,3.10
2023-04-04T03:28:58.646Z,2.80
2023-04-04T03:31:27.684Z,2.90
2023-04-04T03:33:56.942Z,3.13
2023-04-04T03:36:25.506Z,3.33
2023-04-04T03:38:54.275Z,3.28
2023-04-04T03:41:22.856Z,4.00
2023-04-04T03:43:52.965Z,3.67
2023-04-04T03:46:22.005Z,3.70
2023-04-04T03:48:51.554Z,3.50
2023-04-04T03:51:25.653Z,3.72
2023-04-04T03:53:54.439Z,3.33
2023-04-04T03:56:23.047Z,3.47
2023-04-04T03:58:53.298Z,3.60
2023-04-04T04:01:21.954Z,3.30
2023-04-04T04:03:51.033Z,3.50
2023-04-04T04:06:21.087Z,3.17
2023-04-04T04:08:49.693Z,3.65
2023-04-04T04:11:18.531Z,3.33
2023-04-04T04:13:47.385Z,3.25
2023-04-04T04:16:17.593Z,3.10
2023-04-04T04:18:46.295Z,3.03
2023-04-04T04:21:14.911Z,2.97
2023-04-04T04:23:43.730Z,3.08
2023-04-04T04:26:12.355Z,3.33
2023-04-04T04:28:41.408Z,3.35
2023-04-04T04:31:11.408Z,2.60
2023-04-04T04:33:42.242Z,3.08
2023-04-04T04:36:11.678Z,3.35
2023-04-04T04:38:40.241Z,3.08
2023-04-04T04:41:09.115Z,2.97
2023-04-04T04:43:38.394Z,3.40
2023-04-04T04:46:09.126Z,3.83
2023-04-04T04:48:37.834Z,3.90
2023-04-04T04:51:08.350Z,5.00
2023-04-04T04:53:37.496Z,5.88
2023-04-04T04:56:06.359Z,6.97
2023-04-04T04:58:35.138Z,7.38
2023-04-04T05:01:03.704Z,7.35
2023-04-04T05:03:34.029Z,7.80
2023-04-04T05:06:02.736Z,8.13
2023-04-04T05:08:32.917Z,7.93
2023-04-04T05:11:03.330Z,7.68
2023-04-04T05:13:33.865Z,7.82
2023-04-04T05:16:02.514Z,8.25
2023-04-04T05:18:31.347Z,8.07
2023-04-04T05:21:00.349Z,8.15
2023-04-04T05:23:28.870Z,7.60
2023-04-04T05:25:58.933Z,7.60
2023-04-04T05:28:27.891Z,7.15
2023-04-04T05:30:57.473Z,7.97
2023-04-04T05:33:27.142Z,8.02
2023-04-04T05:35:56.484Z,7.25
2023-04-04T05:38:25.145Z,8.38
2023-04-04T05:40:55.733Z,7.55
2023-04-04T05:43:25.805Z,7.47
2023-04-04T05:45:54.997Z,8.13
2023-04-04T05:48:23.906Z,7.97
2023-04-04T05:50:52.606Z,7.80
2023-04-04T05:53:21.394Z,6.82
2023-04-04T05:55:53.609Z,5.78
2023-04-04T05:58:22.567Z,7.03
2023-04-04T06:00:52.778Z,6.20
2023-04-04T06:03:22.156Z,6.40
2023-04-04T06:05:54.130Z,5.78
2023-04-04T06:08:22.616Z,5.75
2023-04-04T06:10:51.465Z,6.03
2023-04-04T06:13:19.869Z,5.60
2023-04-04T06:15:48.535Z,5.03
2023-04-04T06:18:18.304Z,5.22
2023-04-04T06:20:46.691Z,4.72
2023-04-04T06:23:15.217Z,5.35
2023-04-04T06:25:43.929Z,4.43
2023-04-04T06:28:16.373Z,5.10
2023-04-04T06:30:45.576Z,6.70
2023-04-04T06:33:14.059Z,5.60
2023-04-04T06:35:44.046Z,4.88
2023-04-04T06:38:12.703Z,4.55
2023-04-04T06:40:41.270Z,3.97
2023-04-04T06:43:10.350Z,3.95
2023-04-04T06:45:39.146Z,3.92
2023-04-04T06:48:09.328Z,4.00
2023-04-04T06:50:38.262Z,3.58
2023-04-04T06:53:08.473Z,3.63
2023-04-04T06:55:37.805Z,4.53
2023-04-04T06:58:06.534Z,3.92
2023-04-04T07:00:35.506Z,3.95
2023-04-04T07:03:04.200Z,4.10
2023-04-04T07:05:33.585Z,4.00
2023-04-04T07:08:02.049Z,4.30
2023-04-04T07:10:31.958Z,4.47
2023-04-04T07:13:00.934Z,4.68
2023-04-04T07:15:29.498Z,3.63
2023-04-04T07:17:58.201Z,3.72
2023-04-04T07:20:27.436Z,3.40
2023-04-04T07:22:56.262Z,3.58
2023-04-04T07:25:25.085Z,3.80
2023-04-04T07:28:09.666Z,3.47
2023-04-04T07:30:41.285Z,3.78
2023-04-04T07:33:10.500Z,3.83
2023-04-04T07:35:39.384Z,3.78
2023-04-04T07:38:08.004Z,3.55
2023-04-04T07:40:36.716Z,3.88
2023-04-04T07:43:07.443Z,4.00
2023-04-04T07:45:35.990Z,3.95
2023-04-04T07:48:04.859Z,3.42
2023-04-04T07:50:33.869Z,3.42
2023-04-04T07:53:02.471Z,3.17
2023-04-04T07:55:31.016Z,4.13
2023-04-04T07:58:00.396Z,4.00
2023-04-04T08:00:30.599Z,4.10
2023-04-04T08:03:01.650Z,4.30
2023-04-04T08:05:30.655Z,4.50
2023-04-04T08:07:59.260Z,3.67
2023-04-04T08:10:27.720Z,4.50
2023-04-04T08:12:56.578Z,4.15
2023-04-04T08:15:25.307Z,3.80
2023-04-04T08:17:56.433Z,3.58
2023-04-04T08:20:25.495Z,3.42
2023-04-04T08:22:54.068Z,4.20
2023-04-04T08:25:23.364Z,4.15
2023-04-04T08:27:52.031Z,3.45
2023-04-04T08:30:20.869Z,3.33
2023-04-04T08:32:50.194Z,3.67
2023-04-04T08:35:20.979Z,3.67
2023-04-04T08:37:50.281Z,3.25
2023-04-04T08:40:18.892Z,4.82
2023-04-04T08:42:48.603Z,5.55
2023-04-04T08:45:20.079Z,6.50
2023-04-04T08:47:51.826Z,6.03
2023-04-04T08:50:23.486Z,4.90
2023-04-04T08:52:54.151Z,5.07
2023-04-04T08:55:23.490Z,4.68
2023-04-04T08:57:52.177Z,4.82
2023-04-04T09:00:21.741Z,4.38
2023-04-04T09:02:58.109Z,4.75
2023-04-04T09:05:29.518Z,4.30
2023-04-04T09:07:58.244Z,4.47
2023-04-04T09:10:28.552Z,4.45
2023-04-04T09:13:12.412Z,3.83
2023-04-04T09:15:48.215Z,3.90
2023-04-04T09:18:16.890Z,3.85
2023-04-04T09:20:47.737Z,4.13
2023-04-04T09:23:18.698Z,3.47
2023-04-04T09:28:22.800Z,4.03
2023-04-04T09:30:51.822Z,4.07
2023-04-04T09:33:24.318Z,4.20
2023-04-04T09:35:59.163Z,4.00
2023-04-04T09:38:30.149Z,3.70
2023-04-04T09:40:59.106Z,4.05
2023-04-04T09:43:30.988Z,3.72
2023-04-04T09:46:02.194Z,3.40
2023-04-04T09:48:33.115Z,3.40
2023-04-04T09:51:07.403Z,3.15
2023-04-04T09:53:37.972Z,3.03
2023-04-04T09:56:08.369Z,3.20
2023-04-04T09:58:39.113Z,3.47
2023-04-04T10:01:15.608Z,3.00
2023-04-04T10:03:44.921Z,3.08
2023-04-04T10:06:15.710Z,3.45
2023-04-04T10:08:45.595Z,3.10
2023-04-04T10:11:14.285Z,3.25
2023-04-04T10:13:44.923Z,3.17
2023-04-04T10:16:14.773Z,3.22
2023-04-04T10:18:43.569Z,3.33
2023-04-04T10:21:15.708Z,3.00
2023-04-04T10:23:47.956Z,3.50
2023-04-04T10:26:16.894Z,3.20
2023-04-04T10:28:45.754Z,3.03
2023-04-04T10:31:24.988Z,3.03
2023-04-04T10:34:06.376Z,3.10
2023-04-04T10:36:46.301Z,3.53
2023-04-04T10:39:31.227Z,3.38
2023-04-04T10:42:01.789Z,3.10
2023-04-04T10:44:34.190Z,3.42
2023-04-04T10:47:14.872Z,3.15
2023-04-04T10:49:45.158Z,3.65
2023-04-04T10:52:15.612Z,3.17
2023-04-04T10:54:46.708Z,3.10
2023-04-04T10:57:15.953Z,2.88
2023-04-04T11:00:02.625Z,2.53
2023-04-04T11:02:50.220Z,2.83
2023-04-04T11:05:24.015Z,2.58
2023-04-04T11:10:51.356Z,2.72
2023-04-04T11:13:26.792Z,2.40
2023-04-04T11:15:57.978Z,2.78
2023-04-04T11:18:48.056Z,2.60
2023-04-04T11:21:18.934Z,2.88
2023-04-04T11:24:24.080Z,2.70
2023-04-04T11:26:56.861Z,2.40
2023-04-04T11:29:52.810Z,2.40
2023-04-04T11:32:50.110Z,2.63
2023-04-04T11:35:21.868Z,2.85
2023-04-04T11:38:02.102Z,2.70
2023-04-04T11:40:39.445Z,3.00
2023-04-04T11:43:13.861Z,2.60
2023-04-04T11:45:46.677Z,2.60
2023-04-04T11:48:17.994Z,3.00
2023-04-04T11:50:51.807Z,2.55
2023-04-04T11:53:21.234Z,2.58
2023-04-04T11:55:53.532Z,2.50
2023-04-04T11:58:24.667Z,2.78
2023-04-04T12:00:53.204Z,3.00
2023-04-04T12:03:21.996Z,2.30
2023-04-04T12:05:51.401Z,2.65
2023-04-04T12:08:20.657Z,2.60
2023-04-04T12:10:49.136Z,2.85
2023-04-04T12:13:17.690Z,2.67
2023-04-04T12:15:50.702Z,2.35
2023-04-04T12:18:23.433Z,2.03
2023-04-04T12:20:53.216Z,2.22
2023-04-04T12:23:22.146Z,2.13
2023-04-04T12:25:55.050Z,2.20
2023-04-04T12:28:25.367Z,2.10
2023-04-04T12:30:57.453Z,1.90
2023-04-04T12:33:26.076Z,2.20
2023-04-04T12:35:56.484Z,2.05
2023-04-04T12:38:25.176Z,2.17
2023-04-04T12:40:54.383Z,2.00
2023-04-04T12:43:23.028Z,2.60
2023-04-04T12:45:53.536Z,2.47
2023-04-04T12:48:29.051Z,2.17
2023-04-04T12:50:59.228Z,2.25
2023-04-04T12:53:30.644Z,2.40
2023-04-04T12:56:06.830Z,2.42
2023-04-04T12:58:37.902Z,2.40
2023-04-04T13:01:07.450Z,2.50
2023-04-04T13:03:38.229Z,2.22
2023-04-04T13:06:13.909Z,2.58
2023-04-04T13:08:52.439Z,2.78
2023-04-04T13:11:22.304Z,2.60
2023-04-04T13:14:02.968Z,2.40
2023-04-04T13:16:33.430Z,2.20
2023-04-04T13:19:04.003Z,2.10
2023-04-04T13:21:32.674Z,2.50
2023-04-04T13:24:04.295Z,2.20
2023-04-04T13:26:33.079Z,2.33
2023-04-04T13:29:01.629Z,2.25
2023-04-04T13:31:30.163Z,2.20
2023-04-04T13:33:58.535Z,2.35
2023-04-04T13:36:28.709Z,1.92
2023-04-04T13:38:58.586Z,2.00
2023-04-04T13:41:27.266Z,2.20
2023-04-04T13:43:56.968Z,2.20
2023-04-04T13:46:25.964Z,2.45
2023-04-04T13:48:54.733Z,2.40
2023-04-04T13:51:24.801Z,2.15
2023-04-04T13:53:55.126Z,2.00
2023-04-04T13:56:24.085Z,2.00
2023-04-04T13:58:54.358Z,2.00
2023-04-04T14:01:24.231Z,2.20
2023-04-04T14:03:52.799Z,2.03
2023-04-04T14:06:21.677Z,2.40
2023-04-04T14:08:50.562Z,2.15
2023-04-04T14:11:22.052Z,2.13
2023-04-04T14:13:52.932Z,2.30
2023-04-04T14:16:22.141Z,1.80
2023-04-04T14:18:51.163Z,1.90
2023-04-04T14:21:19.980Z,1.65
2023-04-04T14:23:49.142Z,2.00
2023-04-04T14:26:17.891Z,2.03
2023-04-04T14:28:48.785Z,1.98
2023-04-04T14:31:17.398Z,2.05
2023-04-04T14:33:46.325Z,2.35
2023-04-04T14:36:14.751Z,2.05
2023-04-04T14:38:43.286Z,2.33
2023-04-04T14:41:11.780Z,2.30
2023-04-04T14:43:40.704Z,2.13
2023-04-04T14:46:13.939Z,1.98
2023-04-04T14:48:42.421Z,2.50
2023-04-04T14:51:11.205Z,1.98
2023-04-04T14:53:40.192Z,2.17
2023-04-04T14:56:09.142Z,2.33
2023-04-04T14:58:37.893Z,2.40
2023-04-04T15:01:08.724Z,2.45
2023-04-04T15:03:38.746Z,2.20
2023-04-04T15:06:07.871Z,2.05
2023-04-04T15:08:36.840Z,1.80
2023-04-04T15:11:05.696Z,1.90
2023-04-04T15:13:34.936Z,2.00
2023-04-04T15:16:04.650Z,2.00
2023-04-04T15:18:33.246Z,1.92
2023-04-04T15:21:03.904Z,2.08
2023-04-04T15:23:32.601Z,1.85
2023-04-04T15:26:01.290Z,2.00
2023-04-04T15:28:30.009Z,2.08
2023-04-04T15:30:58.573Z,2.13
2023-04-04T15:33:27.225Z,2.10
2023-04-04T15:35:55.710Z,2.00
2023-04-04T15:38:25.672Z,2.30
2023-04-04T15:40:54.225Z,2.25
2023-04-04T15:43:22.831Z,2.20
2023-04-04T15:45:51.400Z,2.10
2023-04-04T15:48:19.786Z,2.25
2023-04-04T15:50:49.138Z,2.15
2023-04-04T15:53:18.281Z,2.15
2023-04-04T15:55:48.230Z,2.45
2023-04-04T15:58:17.021Z,2.08
2023-04-04T16:00:49.198Z,1.92
2023-04-04T16:03:17.821Z,2.33
2023-04-04T16:05:46.979Z,2.50
2023-04-04T16:08:15.699Z,2.60
2023-04-04T16:10:44.971Z,2.38
2023-04-04T16:13:15.483Z,2.30
2023-04-04T16:15:44.221Z,2.15
2023-04-04T16:18:12.709Z,2.42
2023-04-04T16:20:41.684Z,2.30
2023-04-04T16:23:10.718Z,2.40
2023-04-04T16:25:39.296Z,2.67
2023-04-04T16:28:08.208Z,2.35
2023-04-04T16:30:38.562Z,2.22
2023-04-04T16:33:07.408Z,2.58
2023-04-04T16:35:37.519Z,2.88
2023-04-04T16:38:06.552Z,2.38
2023-04-04T16:40:35.390Z,2.35
2023-04-04T16:43:04.089Z,2.55
2023-04-04T16:45:33.154Z,2.58
2023-04-04T16:48:03.356Z,2.70
2023-04-04T16:50:32.468Z,2.35
2023-04-04T16:53:01.583Z,2.50
2023-04-04T16:55:31.781Z,3.03
2023-04-04T16:58:00.425Z,2.40
2023-04-04T17:00:29.669Z,1.90
2023-04-04T17:02:59.342Z,2.80
2023-04-04T17:05:37.200Z,2.53
2023-04-04T17:08:06.790Z,3.15
2023-04-04T17:10:37.680Z,2.60
2023-04-04T17:13:06.736Z,2.88
2023-04-04T17:15:35.260Z,2.92
2023-04-04T17:18:04.389Z,2.90
2023-04-04T17:20:35.004Z,3.47
2023-04-04T17:23:03.366Z,2.72
2023-04-04T17:25:31.806Z,2.75
2023-04-04T17:28:00.278Z,2.85
2023-04-04T17:30:29.878Z,2.85
2023-04-04T17:32:58.488Z,2.60
2023-04-04T17:35:27.645Z,2.42
2023-04-04T17:37:58.976Z,2.78
2023-04-04T17:40:27.405Z,2.85
2023-04-04T17:42:56.585Z,2.70
2023-04-04T17:45:29.885Z,2.80
2023-04-04T17:47:58.669Z,2.38
2023-04-04T17:50:28.432Z,2.92
2023-04-04T17:52:58.531Z,2.88
2023-04-04T17:55:29.563Z,2.50
2023-04-04T17:57:58.477Z,2.05
2023-04-04T18:00:27.061Z,2.80
2023-04-04T18:02:55.589Z,2.45
2023-04-04T18:05:24.968Z,2.15
2023-04-04T18:07:53.650Z,2.80
2023-04-04T18:10:23.708Z,3.10
2023-04-04T18:12:53.564Z,2.83
2023-04-04T18:15:23.051Z,3.30
2023-04-04T18:17:51.932Z,2.88
2023-04-04T18:20:33.965Z,2.83
2023-04-04T18:23:05.499Z,3.53
2023-04-04T18:25:35.834Z,2.83
2023-04-04T18:28:05.315Z,2.97
2023-04-04T18:30:35.705Z,2.85
2023-04-04T18:33:05.609Z,2.97
2023-04-04T18:35:34.121Z,3.10
2023-04-04T18:38:02.834Z,3.22
2023-04-04T18:40:32.198Z,2.60
2023-04-04T18:43:03.159Z,2.63
2023-04-04T18:45:39.931Z,2.67
2023-04-04T18:48:09.962Z,2.85
2023-04-04T18:50:38.837Z,2.78
2023-04-04T18:53:07.964Z,2.65
2023-04-04T18:55:36.443Z,2.85
2023-04-04T18:58:07.031Z,2.60
2023-04-04T19:00:36.794Z,2.78
2023-04-04T19:03:07.964Z,2.50
2023-04-04T19:05:38.563Z,2.42
2023-04-04T19:08:10.053Z,2.75
2023-04-04T19:10:39.618Z,2.90
2023-04-04T19:13:10.030Z,2.30
2023-04-04T19:15:39.024Z,2.95
2023-04-04T19:18:08.021Z,2.75
2023-04-04T19:20:37.095Z,2.60
2023-04-04T19:23:05.771Z,2.70
2023-04-04T19:25:34.505Z,2.90
2023-04-04T19:28:03.200Z,2.80
2023-04-04T19:30:47.831Z,2.55
2023-04-04T19:33:19.274Z,2.63
2023-04-04T19:35:59.392Z,2.67
2023-04-04T19:38:29.794Z,2.80
2023-04-04T19:41:00.299Z,2.95
2023-04-04T19:43:30.650Z,3.20
2023-04-04T19:46:08.687Z,2.83
2023-04-04T19:48:55.534Z,3.55
2023-04-04T19:51:42.884Z,3.90
2023-04-04T19:54:16.424Z,3.63
2023-04-04T19:56:48.397Z,3.67
2023-04-04T19:59:52.431Z,3.70
2023-04-04T20:02:49.024Z,4.13
2023-04-04T20:05:50.081Z,3.45
2023-04-04T20:08:18.624Z,3.17
2023-04-04T20:10:48.369Z,3.90
2023-04-04T20:13:19.259Z,3.72
2023-04-04T20:16:01.723Z,4.28
2023-04-04T20:18:33.861Z,4.18
2023-04-04T20:21:08.918Z,4.47
2023-04-04T20:23:49.806Z,5.10
2023-04-04T20:26:44.361Z,4.78
2023-04-04T20:29:15.492Z,4.30
2023-04-04T20:31:46.104Z,4.32
2023-04-04T20:34:37.504Z,4.15
2023-04-04T20:37:11.007Z,3.92
2023-04-04T20:39:47.769Z,3.80
2023-04-04T20:42:38.296Z,4.25
2023-04-04T20:45:30.458Z,4.07
2023-04-04T20:48:00.976Z,4.50
2023-04-04T20:50:47.802Z,4.53
2023-04-04T20:53:20.576Z,4.57
2023-04-04T20:55:50.786Z,4.50
2023-04-04T20:58:29.308Z,4.75
2023-04-04T21:00:59.763Z,4.45
2023-04-04T21:03:37.110Z,4.05
2023-04-04T21:06:16.622Z,3.70
2023-04-04T21:08:50.107Z,3.40
2023-04-04T21:11:27.740Z,3.80
2023-04-04T21:13:58.255Z,3.63
2023-04-04T21:16:29.976Z,3.30
2023-04-04T21:19:00.997Z,2.95
2023-04-04T21:21:31.357Z,3.20
2023-04-04T21:24:01.843Z,3.03
2023-04-04T21:26:33.233Z,3.25
2023-04-04T21:29:04.694Z,3.10
2023-04-04T21:31:38.994Z,3.13
2023-04-04T21:34:13.235Z,2.60
2023-04-04T21:36:43.780Z,2.80
2023-04-04T21:39:14.452Z,2.78
2023-04-04T21:41:45.509Z,2.50
2023-04-04T21:44:14.196Z,2.17
2023-04-04T21:46:43.506Z,2.35
2023-04-04T21:49:12.314Z,2.22
2023-04-04T21:51:40.798Z,2.00
2023-04-04T21:54:10.921Z,1.83
2023-04-04T21:56:41.084Z,2.00
2023-04-04T21:59:11.103Z,2.00
2023-04-04T22:01:41.106Z,2.40
2023-04-04T22:04:09.654Z,1.80
2023-04-04T22:06:38.468Z,1.70
2023-04-04T22:09:07.205Z,1.90
2023-04-04T22:11:44.558Z,2.08
2023-04-04T22:14:18.252Z,2.33
2023-04-04T22:16:47.518Z,1.60
2023-04-04T22:19:16.497Z,1.60
2023-04-04T22:21:48.271Z,1.42
2023-04-04T22:24:18.526Z,2.03
2023-04-04T22:26:50.748Z,1.83
2023-04-04T22:29:20.502Z,1.67
2023-04-04T22:31:49.348Z,2.03
2023-04-04T22:34:17.823Z,1.83
2023-04-04T22:36:46.445Z,1.67
2023-04-04T22:39:23.230Z,1.70
2023-04-04T22:41:53.258Z,1.40
2023-04-04T22:44:21.847Z,1.88
2023-04-04T22:46:52.391Z,1.70
2023-04-04T22:49:20.951Z,1.52
2023-04-04T22:51:49.979Z,1.60
2023-04-04T22:54:18.765Z,1.60
2023-04-04T22:56:47.383Z,1.42
2023-04-04T22:59:18.564Z,1.50
2023-04-04T23:01:47.261Z,1.67
2023-04-04T23:04:16.703Z,1.30
2023-04-04T23:06:46.599Z,1.52
2023-04-04T23:09:15.060Z,1.40
2023-04-04T23:11:47.226Z,1.48
2023-04-04T23:14:23.139Z,1.50
2023-04-04T23:16:52.793Z,1.38
2023-04-04T23:19:23.476Z,1.30
2023-04-04T23:21:53.165Z,1.27
2023-04-04T23:24:23.669Z,1.60
2023-04-04T23:26:52.182Z,1.30
2023-04-04T23:29:22.194Z,2.00
2023-04-04T23:31:50.882Z,1.55
2023-04-04T23:34:19.352Z,1.58
2023-04-04T23:36:47.894Z,1.80
2023-04-04T23:39:16.467Z,1.50
2023-04-04T23:41:44.971Z,1.67
2023-04-04T23:44:13.429Z,1.77
2023-04-04T23:46:43.558Z,2.30
2023-04-04T23:49:13.050Z,1.60
2023-04-04T23:51:42.498Z,1.77
2023-04-04T23:54:13.333Z,1.50
2023-04-04T23:56:41.817Z,1.90
2023-04-04T23:59:10.824Z,1.40
